• Join FlightAware (Why Join?)
  • Login
  • US Flag 
05:01PM EDT


 

Airport Tracker/Info


-or-


 

Live Flight TrackerFlight Track Log ✈ N706XJ ✈ 30-Apr-2013 ✈ KOAK - KIAD

Flight Track Log - Related Links

Times and Time Zones

All times are in EDT time to prevent confusion due to time zone crossing. See the N706XJ flight status page for this flight to view local times or setup timezone preferences in your user account.

Time Position Orientation Groundspeed Altitude Reporting Facility
EDT Latitude Longitude Course Direction KTS MPH feet Rate Location/Type
07:36PM 37.7167 -122.2500 310° West 168 193 900  Level Northern Cal TRACON
07:37PM 37.7500 -122.3000 310° West 223 257 3,000 2,760 Climbing Northern Cal TRACON
07:38PM 37.8167 -122.2667 22° Northeast 262 302 6,500 3,120 Climbing Northern Cal TRACON
07:39PM 37.8156 -122.2319 92° East 252 290 7,600 3,300 Climbing Oakland Center
07:40PM 37.8367 -122.1372 74° East 275 316 11,400 3,120 Climbing Oakland Center
07:41PM 37.8597 -122.0272 75° East 318 366 14,000 2,400 Climbing Oakland Center
07:42PM 37.8864 -121.9044 75° East 355 409 16,400 2,160 Climbing Oakland Center
07:43PM 37.9189 -121.7506 75° East 375 432 18,500 1,860 Climbing Oakland Center
07:44PM 37.9469 -121.6186 75° East 386 444 20,200 1,860 Climbing Oakland Center
07:45PM 37.9750 -121.4794 76° East 394 453 22,300 1,860 Climbing Oakland Center
07:46PM 38.0039 -121.3439 75° East 401 461 24,100 1,680 Climbing Oakland Center
07:47PM 38.0333 -121.2028 75° East 414 476 25,800 1,560 Climbing Oakland Center
07:48PM 38.0636 -121.0544 75° East 434 499 27,400 1,440 Climbing Oakland Center
07:49PM 38.0892 -120.8986 78° East 453 521 28,800 1,380 Climbing Oakland Center
07:50PM 38.1103 -120.7364 81° East 466 536 30,300 1,440 Climbing Oakland Center
07:51PM 38.1328 -120.5700 80° East 476 548 31,800 1,440 Climbing Oakland Center
07:52PM 38.1556 -120.3981 80° East 490 564 33,300 1,620 Climbing Oakland Center
07:53PM 38.1828 -120.1853 81° East 504 580 35,100 1,560 Climbing Oakland Center
07:54PM 38.2072 -120.0056 80° East 514 592 36,500 1,140 Climbing Oakland Center
07:55PM 38.2300 -119.8247 81° East 518 596 37,500 1,020 Climbing Oakland Center
07:56PM 38.2539 -119.6414 81° East 524 603 38,600 1,080 Climbing Oakland Center
07:57PM 38.2772 -119.4519 81° East 522 601 39,800 1,020 Climbing Oakland Center
07:58PM 38.2978 -119.2714 82° East 518 596 40,700 780 Climbing Oakland Center
07:59PM 38.3197 -119.0939 81° East 512 589 41,400 660 Climbing Oakland Center
08:00PM 38.3408 -118.9139 81° East 515 593 42,100 600 Climbing Oakland Center
08:01PM 38.3619 -118.7350 81° East 514 592 42,700 600 Climbing Oakland Center
08:02PM 38.3828 -118.5561 81° East 513 590 43,400 600 Climbing Oakland Center
08:03PM 38.4022 -118.3783 82° East 510 587 44,000 480 Climbing Oakland Center
08:04PM 38.4267 -118.1631 82° East 513 590 44,400 240 Climbing Oakland Center
08:05PM 38.4442 -118.0042 82° East 517 595 44,600 240 Climbing Oakland Center
08:06PM 38.4642 -117.8208 82° East 520 598 44,900 180 Climbing Oakland Center
08:07PM 38.4842 -117.6347 82° East 525 604 45,000 60 Climbing Oakland Center
08:08PM 38.4956 -117.5225 83° East 527 606 45,000  Level Salt Lake Center
08:08PM 38.5078 -117.4100 82° East 527 606 45,000  Level Oakland Center
08:09PM 38.5172 -117.3339 81° East 530 610 45,000  Level Salt Lake Center
08:10PM 38.5550 -117.1497 75° East 530 610 45,000  Level Salt Lake Center
08:10PM 38.5769 -117.0403 76° East 529 609 45,000  Level Oakland Center
08:11PM 38.6153 -116.8556 75° East 532 612 45,000  Level Oakland Center
08:12PM 38.6289 -116.7811 77° East 533 613 45,000  Level Salt Lake Center
08:13PM 38.6653 -116.5986 76° East 530 610 45,000  Level Salt Lake Center
08:13PM 38.6869 -116.4897 76° East 529 609 45,000  Level Oakland Center
08:14PM 38.7239 -116.3053 76° East 533 613 45,000  Level Oakland Center
08:15PM 38.7386 -116.2306 76° East 535 616 45,000  Level Salt Lake Center
08:16PM 38.7736 -116.0458 76° East 533 613 45,000  Level Salt Lake Center
08:17PM 38.8089 -115.8597 76° East 538 619 45,000  Level Salt Lake Center
08:18PM 38.8444 -115.6753 76° East 534 615 45,000  Level Salt Lake Center
08:19PM 38.8875 -115.4536 76° East 532 612 45,000  Level Salt Lake Center
08:20PM 38.9208 -115.2733 77° East 533 613 45,000  Level Salt Lake Center
08:21PM 38.9556 -115.0869 76° East 536 617 45,000  Level Salt Lake Center
08:22PM 38.9886 -114.9031 77° East 532 612 45,000  Level Salt Lake Center
08:23PM 39.0231 -114.7158 77° East 536 617 45,000  Level Salt Lake Center
08:24PM 39.0572 -114.5283 77° East 539 620 45,000  Level Salt Lake Center
08:25PM 39.0908 -114.3408 77° East 539 620 45,000  Level Salt Lake Center
08:26PM 39.1242 -114.1514 77° East 541 623 45,000  Level Salt Lake Center
08:27PM 39.1639 -113.9239 77° East 542 624 45,000  Level Salt Lake Center
08:28PM 39.1964 -113.7375 77° East 535 616 45,000  Level Salt Lake Center
08:29PM 39.2275 -113.5506 78° East 534 615 45,000  Level Salt Lake Center
08:30PM 39.2592 -113.3636 78° East 534 615 45,000  Level Salt Lake Center
08:31PM 39.2906 -113.1789 78° East 529 609 45,000  Level Salt Lake Center
08:32PM 39.3206 -112.9917 78° East 532 612 45,000  Level Salt Lake Center
08:33PM 39.3517 -112.8044 78° East 534 615 45,000  Level Salt Lake Center
08:34PM 39.3819 -112.6183 78° East 530 610 45,000  Level Salt Lake Center
08:35PM 39.4136 -112.4311 78° East 533 613 45,000  Level Salt Lake Center
08:36PM 39.4489 -112.2056 78° East 534 615 45,000  Level Salt Lake Center
08:37PM 39.4775 -112.0186 79° East 535 616 45,000  Level Salt Lake Center
08:38PM 39.5069 -111.8333 78° East 531 611 45,000  Level Salt Lake Center
08:40PM 39.5347 -111.6458 79° East 533 613 45,000 -60 Level Salt Lake Center
08:41PM 39.5636 -111.4553 79° East 538 619 44,900  Descending Salt Lake Center
08:42PM 39.5936 -111.2492 79° East 530 610 45,000  Climbing Salt Lake Center
08:43PM 39.6194 -111.0733 79° East 520 598 45,000  Level Salt Lake Center
08:44PM 39.6494 -110.8633 79° East 529 609 45,000  Level Salt Lake Center
08:45PM 39.6764 -110.6833 79° East 531 611 45,000  Level Salt Lake Center
08:46PM 39.7014 -110.5028 80° East 532 612 45,000  Level Salt Lake Center
08:47PM 39.7325 -110.2897 79° East 536 617 45,000  Level Salt Lake Center
08:48PM 39.7558 -110.1069 81° East 536 617 45,000  Level Salt Lake Center
08:49PM 39.7861 -109.8919 80° East 540 621 45,000  Level Salt Lake Center
08:50PM 39.8114 -109.7061 80° East 544 626 45,000  Level Salt Lake Center
08:51PM 39.8356 -109.5183 80° East 548 631 45,000  Level Salt Lake Center
08:51PM 39.8478 -109.4231 80° East 549 632 45,000  Level Denver Center
08:52PM 39.8644 -109.3000 80° East 547 629 45,000  Level Salt Lake Center
08:53PM 39.8892 -109.1100 80° East 551 634 45,000  Level Salt Lake Center
08:54PM 39.9183 -108.8878 80° East 553 636 45,000  Level Salt Lake Center
08:54PM 39.9253 -108.8222 82° East 553 636 45,000  Level Denver Center
08:55PM 39.9506 -108.6294 80° East 556 640 45,000  Level Denver Center
08:56PM 39.9728 -108.4378 81° East 556 640 45,000  Level Denver Center
08:57PM 39.9997 -108.2153 81° East 552 635 45,000  Level Denver Center
08:58PM 40.0231 -108.0253 81° East 552 635 45,000  Level Denver Center
08:59PM 40.0444 -107.8372 81° East 548 631 45,000  Level Denver Center
09:00PM 40.0694 -107.6203 81° East 542 624 45,000  Level Denver Center
09:01PM 40.0911 -107.4356 81° East 539 620 45,000  Level Denver Center
09:02PM 40.1158 -107.2194 81° East 538 619 45,000  Level Denver Center
09:03PM 40.1353 -107.0347 82° East 538 619 45,000  Level Denver Center
09:04PM 40.1569 -106.8508 81° East 537 618 45,000  Level Denver Center
09:05PM 40.1800 -106.6350 82° East 537 618 45,000  Level Denver Center
09:06PM 40.1997 -106.4389 82° East 534 615 45,000  Level Denver Center
09:07PM 40.2222 -106.2369 82° East 533 613 45,000  Level Denver Center
09:09PM 40.2408 -106.0497 83° East 536 617 45,000  Level Denver Center
09:10PM 40.2606 -105.8550 82° East 535 616 45,000  Level Denver Center
09:11PM 40.2797 -105.6572 83° East 541 623 45,000  Level Denver Center
09:12PM 40.2989 -105.4561 83° East 550 633 45,000  Level Denver Center
09:13PM 40.3181 -105.2539 83° East 549 632 45,000  Level Denver Center
09:14PM 40.3364 -105.0506 83° East 551 634 45,000  Level Denver Center
09:15PM 40.3553 -104.8500 83° East 549 632 45,000  Level Denver Center
09:16PM 40.3733 -104.6517 83° East 542 624 45,000  Level Denver Center
09:17PM 40.3911 -104.4525 83° East 542 624 45,000  Level Denver Center
09:18PM 40.4069 -104.2578 84° East 531 611 45,000  Level Denver Center
09:19PM 40.4269 -104.0261 83° East 536 617 45,000  Level Denver Center
09:20PM 40.4431 -103.8267 84° East 542 624 45,000  Level Denver Center
09:21PM 40.4622 -103.5953 84° East 537 618 45,000  Level Denver Center
09:22PM 40.4811 -103.3569 84° East 553 636 45,000  Level Denver Center
09:23PM 40.4961 -103.1536 84° East 554 638 45,000  Level Denver Center
09:24PM 40.5114 -102.9514 84° East 551 634 45,000  Level Denver Center
09:25PM 40.5261 -102.7486 84° East 552 635 45,000  Level Denver Center
09:26PM 40.5411 -102.5286 85° East 555 639 45,000  Level Denver Center
09:27PM 40.5569 -102.3047 85° East 551 634 45,000  Level Denver Center
09:28PM 40.5703 -102.1142 85° East 548 631 45,000  Level Denver Center
09:29PM 40.5831 -101.9250 85° East 544 626 45,000  Level Denver Center
09:30PM 40.5978 -101.7011 85° East 549 632 45,000  Level Denver Center
09:32PM 40.6089 -101.5092 86° East 551 634 45,000  Level Denver Center
09:33PM 40.6225 -101.2864 85° East 549 632 45,000  Level Denver Center
09:34PM 40.6331 -101.0986 86° East 543 625 45,000  Level Denver Center
09:35PM 40.6450 -100.8797 86° East 543 625 45,000  Level Denver Center
09:36PM 40.6586 -100.6314 86° East 544 626 45,000  Level Denver Center
09:37PM 40.6683 -100.4442 86° East 543 625 45,000  Level Denver Center
09:38PM 40.6800 -100.2250 86° East 542 624 45,000  Level Denver Center
09:39PM 40.6892 -100.0372 86° East 540 621 45,000  Level Denver Center
09:40PM 40.6978 -99.8494 86° East 537 618 45,000  Level Denver Center
09:41PM 40.7069 -99.6569 86° East 530 610 45,000  Level Denver Center
09:42PM 40.7172 -99.4303 87° East 519 597 45,000  Level Denver Center
09:43PM 40.7247 -99.2425 87° East 515 593 45,000  Level Denver Center
09:44PM 40.7331 -99.0550 87° East 518 596 45,000  Level Minneapolis Center
09:45PM 40.7394 -98.8669 87° East 519 597 45,000  Level Minneapolis Center
09:46PM 40.7464 -98.6767 87° East 523 602 45,000  Level Minneapolis Center
09:47PM 40.7539 -98.4875 87° East 523 602 45,000  Level Minneapolis Center
09:48PM 40.7600 -98.2981 87° East 521 600 45,000  Level Minneapolis Center
09:49PM 40.7658 -98.1092 88° East 520 598 45,000  Level Minneapolis Center
09:50PM 40.7711 -97.9200 88° East 519 597 45,000  Level Minneapolis Center
09:51PM 40.7786 -97.6931 87° East 517 595 45,000  Level Minneapolis Center
09:52PM 40.7831 -97.5014 88° East 521 600 45,000  Level Minneapolis Center
09:53PM 40.7869 -97.3189 88° East 524 603 45,000  Level Minneapolis Center
09:54PM 40.7931 -97.1297 87° East 520 598 45,000  Level Minneapolis Center
09:55PM 40.7983 -96.9400 88° East 520 598 45,000  Level Minneapolis Center
09:56PM 40.8006 -96.7508 89° East 518 596 45,000  Level Minneapolis Center
09:57PM 40.8044 -96.5625 88° East 516 594 45,000  Level Minneapolis Center
09:58PM 40.8083 -96.3767 88° East 513 590 45,000  Level Minneapolis Center
09:59PM 40.8117 -96.1517 89° East 515 593 45,000  Level Minneapolis Center
10:00PM 40.8147 -95.9656 89° East 512 589 45,000  Level Minneapolis Center
10:01PM 40.8169 -95.7800 89° East 511 588 45,000  Level Minneapolis Center
10:02PM 40.8181 -95.5936 89° East 511 588 45,000  Level Minneapolis Center
10:03PM 40.8208 -95.4058 89° East 515 593 45,000  Level Minneapolis Center
10:04PM 40.8231 -95.2194 89° East 513 590 45,000  Level Minneapolis Center
10:05PM 40.8236 -95.0319 90° East 512 589 45,000  Level Minneapolis Center
10:06PM 40.8250 -94.8450 89° East 513 590 45,000  Level Minneapolis Center
10:07PM 40.8253 -94.6203 90° East 513 590 45,000  Level Minneapolis Center
10:08PM 40.8250 -94.4503 90° East 511 588 45,000  Level Minneapolis Center
10:09PM 40.8256 -94.2650 90° East 510 587 45,000  Level Minneapolis Center
10:11PM 40.8237 -94.0789 91° East  Level FlightAware Approximate
10:12PM 40.8225 -93.8514 91° East 513 590 45,000  Level Chicago Center
10:13PM 40.8219 -93.7031 90° East 516 594 45,000  Level Minneapolis Center
10:14PM 40.8203 -93.5158 91° East 515 593 45,000  Level Minneapolis Center
10:15PM 40.8183 -93.2906 91° East 514 592 45,000  Level Minneapolis Center
10:16PM 40.8164 -93.0997 91° East 520 598 45,000  Level Minneapolis Center
10:18PM 40.8122 -92.7186 91° East 521 600 45,000  Level Minneapolis Center
10:19PM 40.8086 -92.5264 91° East 522 601 45,000  Level Minneapolis Center
10:20PM 40.8044 -92.3347 92° East 522 601 45,000  Level Minneapolis Center
10:21PM 40.8011 -92.1422 91° East 524 603 45,000  Level Minneapolis Center
10:22PM 40.7972 -91.9522 91° East 522 601 45,000  Level Minneapolis Center
10:23PM 40.7925 -91.7675 92° East 526 605 45,000  Level Minneapolis Center
10:24PM 40.7881 -91.5308 91° East 525 604 45,000  Level Chicago Center
10:25PM 40.7822 -91.3403 92° East 523 602 45,000  Level Chicago Center
10:26PM 40.7775 -91.1422 92° East 525 604 45,000  Level Chicago Center
10:27PM 40.7708 -90.9514 93° East 522 601 45,000  Level Chicago Center
10:28PM 40.7658 -90.7606 92° East 520 598 45,000  Level Chicago Center
10:29PM 40.7589 -90.5706 93° East 520 598 45,000  Level Chicago Center
10:30PM 40.7522 -90.3808 93° East 519 597 45,000  Level Chicago Center
10:31PM 40.7453 -90.1681 92° East 519 597 45,000  Level Chicago Center
10:32PM 40.7392 -89.9803 92° East 519 597 45,000  Level Chicago Center
10:33PM 40.7308 -89.7911 93° East 519 597 45,000  Level Chicago Center
10:34PM 40.7203 -89.6011 94° East 521 600 45,000  Level Chicago Center
10:35PM 40.7144 -89.4100 92° East 524 603 45,000  Level Chicago Center
10:36PM 40.7050 -89.2211 94° East 517 595 45,000  Level Chicago Center
10:37PM 40.6964 -89.0322 93° East 517 595 45,000  Level Chicago Center
10:38PM 40.6867 -88.8119 93° East 518 596 45,000  Level Chicago Center
10:39PM 40.6775 -88.6242 94° East 521 600 45,000  Level Chicago Center
10:40PM 40.6689 -88.4383 93° East 517 595 45,000  Level Chicago Center
10:41PM 40.6589 -88.2514 94° East 517 595 45,000  Level Chicago Center
10:42PM 40.6486 -88.0642 94° East 518 596 45,000  Level Chicago Center
10:43PM 40.6383 -87.8750 94° East 523 602 45,000  Level Chicago Center
10:44PM 40.6264 -87.6503 94° East 520 598 45,000  Level Chicago Center
10:45PM 40.6153 -87.4603 94° East 525 604 45,000  Level Chicago Center
10:46PM 40.6033 -87.2742 95° East 519 597 45,000  Level Chicago Center
10:47PM 40.5914 -87.0831 95° East 522 601 45,000  Level Chicago Center
10:48PM 40.5778 -86.8933 95° East 519 597 45,000  Level Chicago Center
10:49PM 40.5653 -86.7014 95° East 520 598 45,000  Level Chicago Center
10:50PM 40.5528 -86.5111 95° East 519 597 45,000  Level Chicago Center
10:51PM 40.5389 -86.3203 95° East 520 598 45,000  Level Chicago Center
10:53PM 40.5122 -85.9386 95° East 519 597 45,000  Level Chicago Center
10:54PM 40.4969 -85.7467 96° East 523 602 45,000  Level Chicago Center
10:55PM 40.4822 -85.5553 96° East 522 601 45,000  Level Chicago Center
10:56PM 40.4678 -85.3650 96° East 521 600 45,000  Level Chicago Center
10:57PM 40.4528 -85.1753 96° East 521 600 45,000  Level Chicago Center
10:58PM 40.4478 -85.1106 96° East 519 597 45,000  Level Indianapolis Center
10:59PM 40.4322 -84.9192 96° East 520 598 45,000  Level Indianapolis Center
11:00PM 40.4167 -84.7389 96° East 526 605 45,000  Level Indianapolis Center
11:01PM 40.3969 -84.5172 97° East 519 597 45,000  Level Indianapolis Center
11:02PM 40.3814 -84.3267 96° East 520 598 45,000  Level Indianapolis Center
11:03PM 40.3636 -84.1361 97° East 518 596 45,000  Level Indianapolis Center
11:04PM 40.3469 -83.9458 96° East 519 597 45,000  Level Indianapolis Center
11:05PM 40.3294 -83.7561 97° East 517 595 45,000  Level Indianapolis Center
11:06PM 40.3100 -83.5642 98° East 522 601 45,000  Level Indianapolis Center
11:07PM 40.2733 -83.3750 104° East 527 606 45,000  Level Indianapolis Center
11:08PM 40.2392 -83.1856 103° East 527 606 45,000  Level Indianapolis Center
11:09PM 40.2025 -82.9983 104° East 525 604 45,000  Level Indianapolis Center
11:10PM 40.1672 -82.8100 104° East 525 604 45,000  Level Indianapolis Center
11:11PM 40.1308 -82.6236 104° East 524 603 45,000  Level Indianapolis Center
11:12PM 40.0944 -82.4378 104° East 523 602 45,000  Level Indianapolis Center
11:13PM 40.0578 -82.2525 104° East 523 602 45,000  Level Indianapolis Center
11:14PM 40.0211 -82.0664 104° East 525 604 45,000  Level Indianapolis Center
11:15PM 39.9831 -81.8814 105° East 524 603 45,000  Level Indianapolis Center
11:16PM 39.9472 -81.6967 104° East 520 598 45,000  Level Indianapolis Center
11:17PM 39.9094 -81.5131 105° East 523 602 45,000  Level Indianapolis Center
11:18PM 39.8711 -81.3253 105° East 520 598 45,000  Level Indianapolis Center
11:19PM 39.8325 -81.1444 105° East 518 596 45,000  Level Indianapolis Center
11:20PM 39.7942 -80.9622 105° East 520 598 45,000  Level Indianapolis Center
11:21PM 39.7567 -80.7811 105° East 519 597 45,000 -1,140 Level Indianapolis Center
11:22PM 39.7172 -80.6000 106° East 519 597 42,800 -2,580 Descending Indianapolis Center
11:24PM 39.6394 -80.2214 105° East 516 594 37,000 -2,760 Descending Washington Center
11:25PM 39.6019 -80.0519 106° East 516 594 34,300 -2,220 Descending Washington Center
11:26PM 39.5644 -79.8800 106° East 502 578 32,600 -2,400 Descending Washington Center
11:27PM 39.5331 -79.7086 103° East 497 572 29,500 -2,820 Descending Washington Center
11:28PM 39.5011 -79.5372 104° East 492 566 27,000 -1,260 Descending Washington Center
11:29PM 39.4733 -79.3664 102° East 487 560 27,000 -720 Level Washington Center
11:30PM 39.4372 -79.1869 105° East 500 575 25,600 -2,040 Descending Washington Center
11:31PM 39.4067 -79.0189 103° East 491 565 23,000 -2,580 Descending Washington Center
11:32PM 39.3778 -78.8539 103° East 478 550 20,500 -2,460 Descending Washington Center
11:33PM 39.3467 -78.6967 104° East 467 537 18,100 -2,400 Descending Washington Center
11:34PM 39.3192 -78.5428 103° East 447 514 15,800 -2,220 Descending Washington Center
11:35PM 39.2953 -78.4103 103° East 417 480 13,700 -1,920 Descending Washington Center
11:36PM 39.2706 -78.2994 106° East 366 421 12,000 -1,800 Descending Washington Center
11:37PM 39.2500 -78.1967 104° East 326 375 10,100 -1,920 Descending Washington Center
11:38PM 39.2356 -78.0972 101° East 294 338 8,200 -1,920 Descending Washington Center
11:39PM 39.2228 -78.0003 100° East 274 315 6,400 -1,680 Descending Washington Center
11:40PM 39.2142 -77.9089 97° East 269 310 5,000 -900 Descending Washington Center
11:42PM 39.2000 -77.7500 97° East 251 289 4,000 -420 Descending Potomac TRACON
11:43PM 39.1833 -77.6833 108° East 233 268 4,000 -300 Level Potomac TRACON
11:44PM 39.1833 -77.6167 90° East 206 237 3,500 -540 Descending Potomac TRACON
11:45PM 39.1667 -77.5500 108° East 200 230 3,000 -300 Descending Potomac TRACON
11:46PM 39.1333 -77.5000 131° Southeast 199 229 3,000 -180 Level Potomac TRACON
11:47PM 39.1000 -77.4500 131° Southeast 189 217 2,700 -480 Descending Potomac TRACON
11:48PM 39.0500 -77.4333 165° South 179 206 2,100 -720 Descending Potomac TRACON
11:49PM 39.0000 -77.4333 180° South 159 183 1,300 -840 Descending Potomac TRACON
11:51PM 38.9474 -77.4599 165° South  Level Estimated
11:58PM 38.9474 -77.4599 165° South  Level Estimated
11:59PM 38.9474 -77.4599 165° South  Level Estimated
12:00AM 38.9474 -77.4599 165° South  Level Estimated